sensor_id;sensor_type;location;lat;lon;timestamp;temperature;humidity
3300;DHT22;1662;49.310;8.134;2022-12-18T00:01:20;-6.50;99.90
3300;DHT22;1662;49.310;8.134;2022-12-18T00:03:47;-6.50;99.90
3300;DHT22;1662;49.310;8.134;2022-12-18T00:06:12;-6.50;99.90
3300;DHT22;1662;49.310;8.134;2022-12-18T00:08:39;-6.50;99.90
3300;DHT22;1662;49.310;8.134;2022-12-18T00:11:06;-6.60;99.90
3300;DHT22;1662;49.310;8.134;2022-12-18T00:13:32;-6.50;99.90
3300;DHT22;1662;49.310;8.134;2022-12-18T00:16:06;-6.40;99.90
3300;DHT22;1662;49.310;8.134;2022-12-18T00:19:52;-6.40;99.90
3300;DHT22;1662;49.310;8.134;2022-12-18T00:22:17;-6.30;99.90
3300;DHT22;1662;49.310;8.134;2022-12-18T00:24:43;-6.30;99.90
3300;DHT22;1662;49.310;8.134;2022-12-18T00:27:09;-6.30;99.90
3300;DHT22;1662;49.310;8.134;2022-12-18T00:29:34;-6.30;99.90
3300;DHT22;1662;49.310;8.134;2022-12-18T00:32:00;-6.40;99.90
3300;DHT22;1662;49.310;8.134;2022-12-18T00:34:26;-6.40;99.90
3300;DHT22;1662;49.310;8.134;2022-12-18T00:38:33;-6.40;99.90
3300;DHT22;1662;49.310;8.134;2022-12-18T00:40:59;-6.30;99.90
3300;DHT22;1662;49.310;8.134;2022-12-18T00:43:25;-6.30;99.90
3300;DHT22;1662;49.310;8.134;2022-12-18T00:45:51;-6.30;99.90
3300;DHT22;1662;49.310;8.134;2022-12-18T00:48:16;-6.30;99.90
3300;DHT22;1662;49.310;8.134;2022-12-18T00:50:42;-6.30;99.90
3300;DHT22;1662;49.310;8.134;2022-12-18T00:55:47;-6.20;99.90
3300;DHT22;1662;49.310;8.134;2022-12-18T00:58:14;-6.10;99.90
3300;DHT22;1662;49.310;8.134;2022-12-18T01:00:41;-6.10;99.90
3300;DHT22;1662;49.310;8.134;2022-12-18T01:03:07;-6.00;99.90
3300;DHT22;1662;49.310;8.134;2022-12-18T01:05:33;-6.00;99.90
3300;DHT22;1662;49.310;8.134;2022-12-18T01:07:59;-6.00;99.90
3300;DHT22;1662;49.310;8.134;2022-12-18T01:10:25;-6.00;99.90
3300;DHT22;1662;49.310;8.134;2022-12-18T01:14:58;-6.00;99.90
3300;DHT22;1662;49.310;8.134;2022-12-18T01:17:24;-6.10;99.90
3300;DHT22;1662;49.310;8.134;2022-12-18T01:19:50;-6.10;99.90
3300;DHT22;1662;49.310;8.134;2022-12-18T01:22:15;-6.10;99.90
3300;DHT22;1662;49.310;8.134;2022-12-18T01:24:41;-6.10;99.90
3300;DHT22;1662;49.310;8.134;2022-12-18T01:27:07;-6.10;99.90
3300;DHT22;1662;49.310;8.134;2022-12-18T01:29:33;-6.10;99.90
3300;DHT22;1662;49.310;8.134;2022-12-18T01:33:26;-6.10;99.90
3300;DHT22;1662;49.310;8.134;2022-12-18T01:35:51;-6.10;99.90
3300;DHT22;1662;49.310;8.134;2022-12-18T01:38:17;-6.10;99.90
3300;DHT22;1662;49.310;8.134;2022-12-18T01:40:43;-6.00;99.90
3300;DHT22;1662;49.310;8.134;2022-12-18T01:43:09;-6.00;99.90
3300;DHT22;1662;49.310;8.134;2022-12-18T01:45:34;-6.10;99.90
3300;DHT22;1662;49.310;8.134;2022-12-18T01:48:06;-6.10;99.90
3300;DHT22;1662;49.310;8.134;2022-12-18T01:55:25;-6.20;99.90
3300;DHT22;1662;49.310;8.134;2022-12-18T01:57:55;-6.20;99.90
3300;DHT22;1662;49.310;8.134;2022-12-18T02:00:22;-6.20;99.90
3300;DHT22;1662;49.310;8.134;2022-12-18T02:02:48;-6.20;99.90
3300;DHT22;1662;49.310;8.134;2022-12-18T02:05:27;-6.10;99.90
3300;DHT22;1662;49.310;8.134;2022-12-18T02:08:01;-6.00;99.90
3300;DHT22;1662;49.310;8.134;2022-12-18T02:15:29;-6.10;99.90
3300;DHT22;1662;49.310;8.134;2022-12-18T02:18:10;-6.20;99.90
3300;DHT22;1662;49.310;8.134;2022-12-18T02:20:43;-6.10;99.90
3300;DHT22;1662;49.310;8.134;2022-12-18T02:28:40;-6.00;99.90
3300;DHT22;1662;49.310;8.134;2022-12-18T02:32:03;-5.90;99.90
3300;DHT22;1662;49.310;8.134;2022-12-18T02:34:33;-5.90;99.90
3300;DHT22;1662;49.310;8.134;2022-12-18T02:37:03;-5.90;99.90
3300;DHT22;1662;49.310;8.134;2022-12-18T02:39:30;-5.80;99.90
3300;DHT22;1662;49.310;8.134;2022-12-18T02:42:05;-5.80;99.90
3300;DHT22;1662;49.310;8.134;2022-12-18T02:44:34;-5.90;99.90
3300;DHT22;1662;49.310;8.134;2022-12-18T02:47:01;-5.90;99.90
3300;DHT22;1662;49.310;8.134;2022-12-18T02:51:47;-5.90;99.90
3300;DHT22;1662;49.310;8.134;2022-12-18T02:54:43;-5.90;99.90
3300;DHT22;1662;49.310;8.134;2022-12-18T02:57:24;-6.00;99.90
3300;DHT22;1662;49.310;8.134;2022-12-18T03:00:06;-5.90;99.90
3300;DHT22;1662;49.310;8.134;2022-12-18T03:02:55;-6.00;99.90
3300;DHT22;1662;49.310;8.134;2022-12-18T03:05:31;-6.00;99.90
3300;DHT22;1662;49.310;8.134;2022-12-18T03:09:32;-6.00;99.90
3300;DHT22;1662;49.310;8.134;2022-12-18T03:12:19;-6.00;99.90
3300;DHT22;1662;49.310;8.134;2022-12-18T03:15:19;-6.10;99.90
3300;DHT22;1662;49.310;8.134;2022-12-18T03:17:50;-6.00;99.90
3300;DHT22;1662;49.310;8.134;2022-12-18T03:20:20;-6.00;99.90
3300;DHT22;1662;49.310;8.134;2022-12-18T03:22:50;-6.00;99.90
3300;DHT22;1662;49.310;8.134;2022-12-18T03:27:10;-6.00;99.90
3300;DHT22;1662;49.310;8.134;2022-12-18T03:32:44;-6.00;99.90
3300;DHT22;1662;49.310;8.134;2022-12-18T03:35:18;-5.90;99.90
3300;DHT22;1662;49.310;8.134;2022-12-18T03:37:45;-5.90;99.90
3300;DHT22;1662;49.310;8.134;2022-12-18T03:40:11;-5.80;99.90
3300;DHT22;1662;49.310;8.134;2022-12-18T03:45:27;-5.80;99.90
3300;DHT22;1662;49.310;8.134;2022-12-18T03:48:08;-5.80;99.90
3300;DHT22;1662;49.310;8.134;2022-12-18T03:50:56;-5.90;99.90
3300;DHT22;1662;49.310;8.134;2022-12-18T03:55:53;-5.80;99.90
3300;DHT22;1662;49.310;8.134;2022-12-18T03:58:24;-5.80;99.90
3300;DHT22;1662;49.310;8.134;2022-12-18T04:00:52;-5.70;99.90
3300;DHT22;1662;49.310;8.134;2022-12-18T04:05:02;-5.70;99.90
3300;DHT22;1662;49.310;8.134;2022-12-18T04:07:30;-5.70;99.90
3300;DHT22;1662;49.310;8.134;2022-12-18T04:09:58;-5.70;99.90
3300;DHT22;1662;49.310;8.134;2022-12-18T04:12:26;-5.70;99.90
3300;DHT22;1662;49.310;8.134;2022-12-18T04:14:52;-5.70;99.90
3300;DHT22;1662;49.310;8.134;2022-12-18T04:17:18;-5.70;99.90
3300;DHT22;1662;49.310;8.134;2022-12-18T04:19:45;-5.80;99.90
3300;DHT22;1662;49.310;8.134;2022-12-18T04:24:13;-5.80;99.90
3300;DHT22;1662;49.310;8.134;2022-12-18T04:26:38;-5.90;99.90
3300;DHT22;1662;49.310;8.134;2022-12-18T04:29:07;-5.80;99.90
3300;DHT22;1662;49.310;8.134;2022-12-18T04:31:33;-5.80;99.90
3300;DHT22;1662;49.310;8.134;2022-12-18T04:33:58;-5.90;99.90
3300;DHT22;1662;49.310;8.134;2022-12-18T04:36:24;-5.90;99.90
3300;DHT22;1662;49.310;8.134;2022-12-18T04:38:49;-5.90;99.90
3300;DHT22;1662;49.310;8.134;2022-12-18T04:43:57;-5.90;99.90
3300;DHT22;1662;49.310;8.134;2022-12-18T04:46:22;-5.90;99.90
3300;DHT22;1662;49.310;8.134;2022-12-18T04:48:48;-5.80;99.90
3300;DHT22;1662;49.310;8.134;2022-12-18T04:51:14;-5.80;99.90
3300;DHT22;1662;49.310;8.134;2022-12-18T04:53:40;-5.70;99.90
3300;DHT22;1662;49.310;8.134;2022-12-18T04:56:08;-5.70;99.90
3300;DHT22;1662;49.310;8.134;2022-12-18T04:58:37;-5.60;99.90
3300;DHT22;1662;49.310;8.134;2022-12-18T05:03:21;-5.70;99.90
3300;DHT22;1662;49.310;8.134;2022-12-18T05:05:50;-5.60;99.90
3300;DHT22;1662;49.310;8.134;2022-12-18T05:08:18;-5.60;99.90
3300;DHT22;1662;49.310;8.134;2022-12-18T05:10:44;-5.70;99.90
3300;DHT22;1662;49.310;8.134;2022-12-18T05:13:09;-5.70;99.90
3300;DHT22;1662;49.310;8.134;2022-12-18T05:15:35;-5.70;99.90
3300;DHT22;1662;49.310;8.134;2022-12-18T05:18:01;-5.70;99.90
3300;DHT22;1662;49.310;8.134;2022-12-18T05:21:35;-5.70;99.90
3300;DHT22;1662;49.310;8.134;2022-12-18T05:24:00;-5.60;99.90
3300;DHT22;1662;49.310;8.134;2022-12-18T05:26:29;-5.70;99.90
3300;DHT22;1662;49.310;8.134;2022-12-18T05:28:54;-5.70;99.90
3300;DHT22;1662;49.310;8.134;2022-12-18T05:31:21;-5.70;99.90
3300;DHT22;1662;49.310;8.134;2022-12-18T05:33:47;-5.70;99.90
3300;DHT22;1662;49.310;8.134;2022-12-18T05:36:12;-5.60;99.90
3300;DHT22;1662;49.310;8.134;2022-12-18T05:40:48;-5.60;99.90
3300;DHT22;1662;49.310;8.134;2022-12-18T05:43:13;-5.70;99.90
3300;DHT22;1662;49.310;8.134;2022-12-18T05:45:39;-5.70;99.90
3300;DHT22;1662;49.310;8.134;2022-12-18T05:48:06;-5.70;99.90
3300;DHT22;1662;49.310;8.134;2022-12-18T05:50:39;-5.60;99.90
3300;DHT22;1662;49.310;8.134;2022-12-18T05:53:05;-5.60;99.90
3300;DHT22;1662;49.310;8.134;2022-12-18T05:55:37;-5.60;99.90
3300;DHT22;1662;49.310;8.134;2022-12-18T05:59:58;-5.60;99.90
3300;DHT22;1662;49.310;8.134;2022-12-18T06:02:23;-5.60;99.90
3300;DHT22;1662;49.310;8.134;2022-12-18T06:04:49;-5.60;99.90
3300;DHT22;1662;49.310;8.134;2022-12-18T06:07:15;-5.50;99.90
3300;DHT22;1662;49.310;8.134;2022-12-18T06:09:45;-5.50;99.90
3300;DHT22;1662;49.310;8.134;2022-12-18T06:12:11;-5.40;99.90
3300;DHT22;1662;49.310;8.134;2022-12-18T06:14:37;-4.80;99.90
3300;DHT22;1662;49.310;8.134;2022-12-18T06:18:12;-4.40;99.90
3300;DHT22;1662;49.310;8.134;2022-12-18T06:20:37;-4.40;99.90
3300;DHT22;1662;49.310;8.134;2022-12-18T06:23:05;-4.50;99.90
3300;DHT22;1662;49.310;8.134;2022-12-18T06:25:31;-4.70;99.90
3300;DHT22;1662;49.310;8.134;2022-12-18T06:27:56;-4.80;99.90
3300;DHT22;1662;49.310;8.134;2022-12-18T06:30:22;-5.00;99.90
3300;DHT22;1662;49.310;8.134;2022-12-18T06:32:50;-5.10;99.90
3300;DHT22;1662;49.310;8.134;2022-12-18T06:36:58;-5.20;99.90
3300;DHT22;1662;49.310;8.134;2022-12-18T06:39:24;-5.30;99.90
3300;DHT22;1662;49.310;8.134;2022-12-18T06:41:52;-5.30;99.90
3300;DHT22;1662;49.310;8.134;2022-12-18T06:44:18;-5.20;99.90
3300;DHT22;1662;49.310;8.134;2022-12-18T06:46:46;-5.30;99.90
3300;DHT22;1662;49.310;8.134;2022-12-18T06:49:11;-5.30;99.90
3300;DHT22;1662;49.310;8.134;2022-12-18T06:51:37;-5.30;99.90
3300;DHT22;1662;49.310;8.134;2022-12-18T06:55:52;-5.30;99.90
3300;DHT22;1662;49.310;8.134;2022-12-18T06:58:17;-5.30;99.90
3300;DHT22;1662;49.310;8.134;2022-12-18T07:00:43;-5.30;99.90
3300;DHT22;1662;49.310;8.134;2022-12-18T07:03:11;-5.30;99.90
3300;DHT22;1662;49.310;8.134;2022-12-18T07:05:40;-5.30;99.90
3300;DHT22;1662;49.310;8.134;2022-12-18T07:08:06;-5.30;99.90
3300;DHT22;1662;49.310;8.134;2022-12-18T07:10:32;-5.30;99.90
3300;DHT22;1662;49.310;8.134;2022-12-18T07:14:32;-5.30;99.90
3300;DHT22;1662;49.310;8.134;2022-12-18T07:16:58;-5.30;99.90
3300;DHT22;1662;49.310;8.134;2022-12-18T07:19:24;-5.30;99.90
3300;DHT22;1662;49.310;8.134;2022-12-18T07:21:54;-5.40;99.90
3300;DHT22;1662;49.310;8.134;2022-12-18T07:24:20;-5.40;99.90
3300;DHT22;1662;49.310;8.134;2022-12-18T07:26:48;-5.40;99.90
3300;DHT22;1662;49.310;8.134;2022-12-18T07:31:59;-5.40;99.90
3300;DHT22;1662;49.310;8.134;2022-12-18T07:34:25;-5.50;99.90
3300;DHT22;1662;49.310;8.134;2022-12-18T07:36:51;-5.60;99.90
3300;DHT22;1662;49.310;8.134;2022-12-18T07:39:16;-5.60;99.90
3300;DHT22;1662;49.310;8.134;2022-12-18T07:41:42;-5.70;99.90
3300;DHT22;1662;49.310;8.134;2022-12-18T07:44:12;-5.70;99.90
3300;DHT22;1662;49.310;8.134;2022-12-18T07:46:38;-4.10;99.90
3300;DHT22;1662;49.310;8.134;2022-12-18T07:51:10;-4.20;99.90
3300;DHT22;1662;49.310;8.134;2022-12-18T07:53:36;-4.70;99.90
3300;DHT22;1662;49.310;8.134;2022-12-18T07:56:05;-5.00;99.90
3300;DHT22;1662;49.310;8.134;2022-12-18T07:58:31;-5.20;99.90
3300;DHT22;1662;49.310;8.134;2022-12-18T08:01:08;-5.40;99.90
3300;DHT22;1662;49.310;8.134;2022-12-18T08:03:34;-5.60;99.90
3300;DHT22;1662;49.310;8.134;2022-12-18T08:08:53;-5.60;99.90
3300;DHT22;1662;49.310;8.134;2022-12-18T08:11:22;-5.70;99.90
3300;DHT22;1662;49.310;8.134;2022-12-18T08:13:48;-5.70;99.90
3300;DHT22;1662;49.310;8.134;2022-12-18T08:16:14;-5.70;99.90
3300;DHT22;1662;49.310;8.134;2022-12-18T08:18:40;-5.70;99.90
3300;DHT22;1662;49.310;8.134;2022-12-18T08:21:12;-5.60;99.90
3300;DHT22;1662;49.310;8.134;2022-12-18T08:26:19;-5.60;99.90
3300;DHT22;1662;49.310;8.134;2022-12-18T08:28:44;-5.50;99.90
3300;DHT22;1662;49.310;8.134;2022-12-18T08:31:10;-5.50;99.90
3300;DHT22;1662;49.310;8.134;2022-12-18T08:33:37;-5.50;99.90
3300;DHT22;1662;49.310;8.134;2022-12-18T08:36:04;-5.40;99.90
3300;DHT22;1662;49.310;8.134;2022-12-18T08:38:30;-5.40;99.90
3300;DHT22;1662;49.310;8.134;2022-12-18T08:41:04;-5.40;99.90
3300;DHT22;1662;49.310;8.134;2022-12-18T08:44:30;-5.30;99.90
3300;DHT22;1662;49.310;8.134;2022-12-18T08:47:06;-5.30;99.90
3300;DHT22;1662;49.310;8.134;2022-12-18T08:49:33;-5.20;99.90
3300;DHT22;1662;49.310;8.134;2022-12-18T08:51:58;-5.10;99.90
3300;DHT22;1662;49.310;8.134;2022-12-18T08:54:24;-5.00;99.90
3300;DHT22;1662;49.310;8.134;2022-12-18T08:56:50;-5.00;99.90
3300;DHT22;1662;49.310;8.134;2022-12-18T08:59:17;-5.00;99.90
3300;DHT22;1662;49.310;8.134;2022-12-18T09:04:12;-4.90;99.90
3300;DHT22;1662;49.310;8.134;2022-12-18T09:06:39;-3.00;99.90
3300;DHT22;1662;49.310;8.134;2022-12-18T09:09:05;-2.40;99.90
3300;DHT22;1662;49.310;8.134;2022-12-18T09:11:32;-2.80;99.90
3300;DHT22;1662;49.310;8.134;2022-12-18T09:13:59;-3.00;99.90
3300;DHT22;1662;49.310;8.134;2022-12-18T09:16:26;-3.30;99.90
3300;DHT22;1662;49.310;8.134;2022-12-18T09:18:56;-3.60;99.90
3300;DHT22;1662;49.310;8.134;2022-12-18T09:23:39;-3.80;99.90
3300;DHT22;1662;49.310;8.134;2022-12-18T09:26:05;-4.00;99.90
3300;DHT22;1662;49.310;8.134;2022-12-18T09:28:33;-4.00;99.90
3300;DHT22;1662;49.310;8.134;2022-12-18T09:31:04;-3.90;99.90
3300;DHT22;1662;49.310;8.134;2022-12-18T09:33:29;-3.90;99.90
3300;DHT22;1662;49.310;8.134;2022-12-18T09:35:55;-3.90;99.90
3300;DHT22;1662;49.310;8.134;2022-12-18T09:38:20;-3.90;99.90
3300;DHT22;1662;49.310;8.134;2022-12-18T09:43:17;-3.90;99.90
3300;DHT22;1662;49.310;8.134;2022-12-18T09:45:49;-3.80;99.90
3300;DHT22;1662;49.310;8.134;2022-12-18T09:48:27;-3.70;99.90
3300;DHT22;1662;49.310;8.134;2022-12-18T09:50:58;-3.60;99.90
3300;DHT22;1662;49.310;8.134;2022-12-18T09:53:29;-3.50;99.90
3300;DHT22;1662;49.310;8.134;2022-12-18T09:55:57;-3.40;99.90
3300;DHT22;1662;49.310;8.134;2022-12-18T10:02:36;-3.30;99.90
3300;DHT22;1662;49.310;8.134;2022-12-18T10:05:07;-3.40;99.90
3300;DHT22;1662;49.310;8.134;2022-12-18T10:07:55;-3.40;99.90
3300;DHT22;1662;49.310;8.134;2022-12-18T10:15:45;-3.50;99.90
3300;DHT22;1662;49.310;8.134;2022-12-18T10:20:43;-3.50;99.90
3300;DHT22;1662;49.310;8.134;2022-12-18T10:25:27;-3.50;99.90
3300;DHT22;1662;49.310;8.134;2022-12-18T10:28:07;-3.60;99.90
3300;DHT22;1662;49.310;8.134;2022-12-18T10:30:33;-3.60;99.90
3300;DHT22;1662;49.310;8.134;2022-12-18T10:33:04;-3.50;99.90
3300;DHT22;1662;49.310;8.134;2022-12-18T10:35:30;-3.50;99.90
3300;DHT22;1662;49.310;8.134;2022-12-18T10:38:23;-3.40;99.90
3300;DHT22;1662;49.310;8.134;2022-12-18T10:40:53;-3.50;99.90
3300;DHT22;1662;49.310;8.134;2022-12-18T10:45:01;-3.50;99.90
3300;DHT22;1662;49.310;8.134;2022-12-18T10:47:27;-3.50;99.90
3300;DHT22;1662;49.310;8.134;2022-12-18T10:49:56;-3.50;99.90
3300;DHT22;1662;49.310;8.134;2022-12-18T10:52:24;-3.60;99.90
3300;DHT22;1662;49.310;8.134;2022-12-18T10:54:55;-3.60;99.90
3300;DHT22;1662;49.310;8.134;2022-12-18T10:59:56;-3.50;99.90
3300;DHT22;1662;49.310;8.134;2022-12-18T11:04:20;-3.40;99.90
3300;DHT22;1662;49.310;8.134;2022-12-18T11:06:54;-3.50;99.90
3300;DHT22;1662;49.310;8.134;2022-12-18T11:09:23;-3.60;99.90
3300;DHT22;1662;49.310;8.134;2022-12-18T11:11:54;-3.60;99.90
3300;DHT22;1662;49.310;8.134;2022-12-18T11:14:41;-3.50;99.90
3300;DHT22;1662;49.310;8.134;2022-12-18T11:17:19;-3.50;99.90
3300;DHT22;1662;49.310;8.134;2022-12-18T11:19:58;-3.50;99.90
3300;DHT22;1662;49.310;8.134;2022-12-18T11:24:22;-3.50;99.90
3300;DHT22;1662;49.310;8.134;2022-12-18T11:26:51;-3.50;99.90
3300;DHT22;1662;49.310;8.134;2022-12-18T11:29:22;-3.50;99.90
3300;DHT22;1662;49.310;8.134;2022-12-18T11:31:50;-3.50;99.90
3300;DHT22;1662;49.310;8.134;2022-12-18T11:34:24;-3.50;99.90
3300;DHT22;1662;49.310;8.134;2022-12-18T11:36:52;-3.50;99.90
3300;DHT22;1662;49.310;8.134;2022-12-18T11:39:30;-3.40;99.90
3300;DHT22;1662;49.310;8.134;2022-12-18T11:44:18;-3.40;99.90
3300;DHT22;1662;49.310;8.134;2022-12-18T11:46:52;-3.40;99.90
3300;DHT22;1662;49.310;8.134;2022-12-18T11:49:24;-3.40;99.90
3300;DHT22;1662;49.310;8.134;2022-12-18T11:54:42;-3.40;99.90
3300;DHT22;1662;49.310;8.134;2022-12-18T11:57:37;-3.40;99.90
3300;DHT22;1662;49.310;8.134;2022-12-18T12:05:57;-3.30;99.90
3300;DHT22;1662;49.310;8.134;2022-12-18T12:16:51;-2.90;99.90
3300;DHT22;1662;49.310;8.134;2022-12-18T12:22:15;-2.90;99.90
3300;DHT22;1662;49.310;8.134;2022-12-18T12:25:04;-2.90;99.90
3300;DHT22;1662;49.310;8.134;2022-12-18T12:30:18;-2.90;99.90
3300;DHT22;1662;49.310;8.134;2022-12-18T12:32:53;-2.80;99.90
3300;DHT22;1662;49.310;8.134;2022-12-18T12:40:10;-2.70;99.90
3300;DHT22;1662;49.310;8.134;2022-12-18T12:42:43;-2.60;99.90
3300;DHT22;1662;49.310;8.134;2022-12-18T12:45:40;-2.50;99.90
3300;DHT22;1662;49.310;8.134;2022-12-18T12:48:16;-2.50;99.90
3300;DHT22;1662;49.310;8.134;2022-12-18T12:50:42;-2.50;99.90
3300;DHT22;1662;49.310;8.134;2022-12-18T12:53:21;-2.60;99.90
3300;DHT22;1662;49.310;8.134;2022-12-18T12:57:45;-2.60;99.90
3300;DHT22;1662;49.310;8.134;2022-12-18T13:00:19;-2.60;99.90
3300;DHT22;1662;49.310;8.134;2022-12-18T13:03:03;-2.40;99.90
3300;DHT22;1662;49.310;8.134;2022-12-18T13:06:18;-2.30;99.90
3300;DHT22;1662;49.310;8.134;2022-12-18T13:08:30;-2.40;99.90
3300;DHT22;1662;49.310;8.134;2022-12-18T13:10:59;-2.40;99.90
3300;DHT22;1662;49.310;8.134;2022-12-18T13:16:19;-2.40;99.90
3300;DHT22;1662;49.310;8.134;2022-12-18T13:18:50;-2.40;99.90
3300;DHT22;1662;49.310;8.134;2022-12-18T13:21:33;-2.40;99.90
3300;DHT22;1662;49.310;8.134;2022-12-18T13:24:20;-2.30;99.90
3300;DHT22;1662;49.310;8.134;2022-12-18T13:26:48;-2.30;99.90
3300;DHT22;1662;49.310;8.134;2022-12-18T13:29:43;-2.20;99.90
3300;DHT22;1662;49.310;8.134;2022-12-18T13:37:44;-2.10;99.90
3300;DHT22;1662;49.310;8.134;2022-12-18T13:43:35;-2.20;99.90
3300;DHT22;1662;49.310;8.134;2022-12-18T13:46:44;-2.00;99.90
3300;DHT22;1662;49.310;8.134;2022-12-18T13:54:06;-2.10;99.90
3300;DHT22;1662;49.310;8.134;2022-12-18T13:56:44;-2.30;99.90
3300;DHT22;1662;49.310;8.134;2022-12-18T14:01:35;-1.70;99.90
3300;DHT22;1662;49.310;8.134;2022-12-18T14:04:38;2.80;99.90
3300;DHT22;1662;49.310;8.134;2022-12-18T14:07:12;3.10;99.90
3300;DHT22;1662;49.310;8.134;2022-12-18T14:12:35;2.00;99.90
3300;DHT22;1662;49.310;8.134;2022-12-18T14:17:53;-0.30;99.90
3300;DHT22;1662;49.310;8.134;2022-12-18T14:20:20;-0.70;99.90
3300;DHT22;1662;49.310;8.134;2022-12-18T14:22:48;-1.00;99.90
3300;DHT22;1662;49.310;8.134;2022-12-18T14:25:17;-1.20;99.90
3300;DHT22;1662;49.310;8.134;2022-12-18T14:27:52;-1.40;99.90
3300;DHT22;1662;49.310;8.134;2022-12-18T14:32:32;-1.50;99.90
3300;DHT22;1662;49.310;8.134;2022-12-18T14:35:00;-1.70;99.90
3300;DHT22;1662;49.310;8.134;2022-12-18T14:37:37;-1.70;99.90
3300;DHT22;1662;49.310;8.134;2022-12-18T14:40:04;-1.80;99.90
3300;DHT22;1662;49.310;8.134;2022-12-18T14:42:30;-1.80;99.90
3300;DHT22;1662;49.310;8.134;2022-12-18T14:45:34;-1.70;99.90
3300;DHT22;1662;49.310;8.134;2022-12-18T14:48:00;-1.70;99.90
3300;DHT22;1662;49.310;8.134;2022-12-18T14:52:58;-1.80;99.90
3300;DHT22;1662;49.310;8.134;2022-12-18T14:55:23;-1.80;99.90
3300;DHT22;1662;49.310;8.134;2022-12-18T14:57:54;-1.80;99.90
3300;DHT22;1662;49.310;8.134;2022-12-18T15:00:23;-1.70;99.90
3300;DHT22;1662;49.310;8.134;2022-12-18T15:02:54;-1.70;99.90
3300;DHT22;1662;49.310;8.134;2022-12-18T15:05:29;-1.70;99.90
3300;DHT22;1662;49.310;8.134;2022-12-18T15:07:57;-1.80;99.90
3300;DHT22;1662;49.310;8.134;2022-12-18T15:12:01;-1.90;99.90
3300;DHT22;1662;49.310;8.134;2022-12-18T15:16:58;-2.00;99.90
3300;DHT22;1662;49.310;8.134;2022-12-18T15:19:38;-2.00;99.90
3300;DHT22;1662;49.310;8.134;2022-12-18T15:27:33;-2.00;99.90
3300;DHT22;1662;49.310;8.134;2022-12-18T15:32:36;-2.00;99.90
3300;DHT22;1662;49.310;8.134;2022-12-18T15:37:36;-2.00;99.90
3300;DHT22;1662;49.310;8.134;2022-12-18T15:40:02;-2.00;99.90
3300;DHT22;1662;49.310;8.134;2022-12-18T15:42:28;-2.00;99.90
3300;DHT22;1662;49.310;8.134;2022-12-18T15:45:13;-2.00;99.90
3300;DHT22;1662;49.310;8.134;2022-12-18T15:48:56;-2.10;99.90
3300;DHT22;1662;49.310;8.134;2022-12-18T15:51:31;-0.90;99.90
3300;DHT22;1662;49.310;8.134;2022-12-18T15:54:02;-0.70;99.90
3300;DHT22;1662;49.310;8.134;2022-12-18T15:56:29;-0.70;99.90
3300;DHT22;1662;49.310;8.134;2022-12-18T15:59:16;-0.90;99.90
3300;DHT22;1662;49.310;8.134;2022-12-18T16:01:45;-1.10;99.90
3300;DHT22;1662;49.310;8.134;2022-12-18T16:06:45;-1.30;99.90
3300;DHT22;1662;49.310;8.134;2022-12-18T16:09:10;-1.60;99.90
3300;DHT22;1662;49.310;8.134;2022-12-18T16:11:37;-1.60;99.90
3300;DHT22;1662;49.310;8.134;2022-12-18T16:14:21;-1.60;99.90
3300;DHT22;1662;49.310;8.134;2022-12-18T16:16:55;-1.60;99.90
3300;DHT22;1662;49.310;8.134;2022-12-18T16:19:21;-1.70;99.90
3300;DHT22;1662;49.310;8.134;2022-12-18T16:21:47;-1.70;99.90
3300;DHT22;1662;49.310;8.134;2022-12-18T16:25:46;-1.70;99.90
3300;DHT22;1662;49.310;8.134;2022-12-18T16:28:11;-1.60;99.90
3300;DHT22;1662;49.310;8.134;2022-12-18T16:30:37;-1.60;99.90
3300;DHT22;1662;49.310;8.134;2022-12-18T16:33:02;-1.60;99.90
3300;DHT22;1662;49.310;8.134;2022-12-18T16:35:28;-1.60;99.90
3300;DHT22;1662;49.310;8.134;2022-12-18T16:37:54;-1.60;99.90
3300;DHT22;1662;49.310;8.134;2022-12-18T16:40:19;-1.60;99.90
3300;DHT22;1662;49.310;8.134;2022-12-18T16:45:24;-1.60;99.90
3300;DHT22;1662;49.310;8.134;2022-12-18T16:47:50;-1.70;99.90
3300;DHT22;1662;49.310;8.134;2022-12-18T16:50:15;-1.70;99.90
3300;DHT22;1662;49.310;8.134;2022-12-18T16:52:41;-1.70;99.90
3300;DHT22;1662;49.310;8.134;2022-12-18T16:55:07;-1.70;99.90
3300;DHT22;1662;49.310;8.134;2022-12-18T16:57:33;-1.60;99.90
3300;DHT22;1662;49.310;8.134;2022-12-18T16:59:59;-1.60;99.90
3300;DHT22;1662;49.310;8.134;2022-12-18T17:04:35;-1.60;99.90
3300;DHT22;1662;49.310;8.134;2022-12-18T17:07:01;-1.60;99.90
3300;DHT22;1662;49.310;8.134;2022-12-18T17:09:26;-1.70;99.90
3300;DHT22;1662;49.310;8.134;2022-12-18T17:11:53;-1.60;99.90
3300;DHT22;1662;49.310;8.134;2022-12-18T17:14:21;-1.60;99.90
3300;DHT22;1662;49.310;8.134;2022-12-18T17:16:46;-1.60;99.90
3300;DHT22;1662;49.310;8.134;2022-12-18T17:19:13;-1.70;99.90
3300;DHT22;1662;49.310;8.134;2022-12-18T17:24:17;-1.70;99.90
3300;DHT22;1662;49.310;8.134;2022-12-18T17:26:43;-1.60;99.90
3300;DHT22;1662;49.310;8.134;2022-12-18T17:29:12;-1.60;99.90
3300;DHT22;1662;49.310;8.134;2022-12-18T17:31:38;-1.60;99.90
3300;DHT22;1662;49.310;8.134;2022-12-18T17:34:04;-1.60;99.90
3300;DHT22;1662;49.310;8.134;2022-12-18T17:36:30;-1.60;99.90
3300;DHT22;1662;49.310;8.134;2022-12-18T17:39:00;-1.60;99.90
3300;DHT22;1662;49.310;8.134;2022-12-18T17:43:27;-1.60;99.90
3300;DHT22;1662;49.310;8.134;2022-12-18T17:45:53;-1.60;99.90
3300;DHT22;1662;49.310;8.134;2022-12-18T17:48:19;-1.60;99.90
3300;DHT22;1662;49.310;8.134;2022-12-18T17:50:44;-1.60;99.90
3300;DHT22;1662;49.310;8.134;2022-12-18T17:53:10;-1.60;99.90
3300;DHT22;1662;49.310;8.134;2022-12-18T17:55:36;-1.60;99.90
3300;DHT22;1662;49.310;8.134;2022-12-18T17:58:01;-1.60;99.90
3300;DHT22;1662;49.310;8.134;2022-12-18T18:03:04;-1.50;99.90
3300;DHT22;1662;49.310;8.134;2022-12-18T18:05:30;-1.50;99.90
3300;DHT22;1662;49.310;8.134;2022-12-18T18:07:55;-1.50;99.90
3300;DHT22;1662;49.310;8.134;2022-12-18T18:10:21;-1.50;99.90
3300;DHT22;1662;49.310;8.134;2022-12-18T18:12:47;-1.50;99.90
3300;DHT22;1662;49.310;8.134;2022-12-18T18:15:30;-1.50;99.90
3300;DHT22;1662;49.310;8.134;2022-12-18T18:17:56;-1.50;99.90
3300;DHT22;1662;49.310;8.134;2022-12-18T18:22:48;-1.40;99.90
3300;DHT22;1662;49.310;8.134;2022-12-18T18:25:16;-1.50;99.90
3300;DHT22;1662;49.310;8.134;2022-12-18T18:27:42;-1.50;99.90
3300;DHT22;1662;49.310;8.134;2022-12-18T18:30:08;-1.50;99.90
3300;DHT22;1662;49.310;8.134;2022-12-18T18:32:34;-1.50;99.90
3300;DHT22;1662;49.310;8.134;2022-12-18T18:35:05;-1.50;99.90
3300;DHT22;1662;49.310;8.134;2022-12-18T18:37:31;-1.40;99.90
3300;DHT22;1662;49.310;8.134;2022-12-18T18:41:26;-1.40;99.90
3300;DHT22;1662;49.310;8.134;2022-12-18T18:43:55;-1.50;99.90
3300;DHT22;1662;49.310;8.134;2022-12-18T18:46:22;-1.50;99.90
3300;DHT22;1662;49.310;8.134;2022-12-18T18:48:47;-1.50;99.90
3300;DHT22;1662;49.310;8.134;2022-12-18T18:51:15;-1.50;99.90
3300;DHT22;1662;49.310;8.134;2022-12-18T18:53:42;-1.50;99.90
3300;DHT22;1662;49.310;8.134;2022-12-18T18:56:10;-1.40;99.90
3300;DHT22;1662;49.310;8.134;2022-12-18T18:59:22;-1.40;99.90
3300;DHT22;1662;49.310;8.134;2022-12-18T19:01:48;-1.40;99.90
3300;DHT22;1662;49.310;8.134;2022-12-18T19:04:14;-1.40;99.90
3300;DHT22;1662;49.310;8.134;2022-12-18T19:06:40;-1.30;99.90
3300;DHT22;1662;49.310;8.134;2022-12-18T19:09:07;-1.30;99.90
3300;DHT22;1662;49.310;8.134;2022-12-18T19:11:35;-1.30;99.90
3300;DHT22;1662;49.310;8.134;2022-12-18T19:14:19;-1.30;99.90
3300;DHT22;1662;49.310;8.134;2022-12-18T19:18:03;-1.30;99.90
3300;DHT22;1662;49.310;8.134;2022-12-18T19:20:31;-1.30;99.90
3300;DHT22;1662;49.310;8.134;2022-12-18T19:22:56;-1.30;99.90
3300;DHT22;1662;49.310;8.134;2022-12-18T19:25:24;-1.20;99.90
3300;DHT22;1662;49.310;8.134;2022-12-18T19:27:50;-1.30;99.90
3300;DHT22;1662;49.310;8.134;2022-12-18T19:30:15;-1.30;99.90
3300;DHT22;1662;49.310;8.134;2022-12-18T19:35:13;-1.30;99.90
3300;DHT22;1662;49.310;8.134;2022-12-18T19:37:40;-1.20;99.90